sensor_id;sensor_type;location;lat;lon;timestamp;pressure;altitude;pressure_sealevel;temperature;humidity
8569;BME280;4322;51.104;-4.162;2022-10-31T00:01:33;102430.72;;;12.96;100.00
8569;BME280;4322;51.104;-4.162;2022-10-31T00:04:02;102431.53;;;12.98;100.00
8569;BME280;4322;51.104;-4.162;2022-10-31T00:06:30;102430.66;;;12.97;100.00
8569;BME280;4322;51.104;-4.162;2022-10-31T00:09:04;102432.41;;;12.98;100.00
8569;BME280;4322;51.104;-4.162;2022-10-31T00:11:32;102436.69;;;12.99;100.00
8569;BME280;4322;51.104;-4.162;2022-10-31T00:14:00;102433.28;;;12.97;100.00
8569;BME280;4322;51.104;-4.162;2022-10-31T00:16:29;102436.78;;;12.96;100.00
8569;BME280;4322;51.104;-4.162;2022-10-31T00:18:59;102435.09;;;12.95;100.00
8569;BME280;4322;51.104;-4.162;2022-10-31T00:21:29;102439.38;;;12.98;100.00
8569;BME280;4322;51.104;-4.162;2022-10-31T00:23:57;102443.72;;;12.99;100.00
8569;BME280;4322;51.104;-4.162;2022-10-31T00:26:28;102430.56;;;13.00;100.00
8569;BME280;4322;51.104;-4.162;2022-10-31T00:28:56;102443.66;;;13.00;100.00
8569;BME280;4322;51.104;-4.162;2022-10-31T00:31:24;102444.53;;;13.01;100.00
8569;BME280;4322;51.104;-4.162;2022-10-31T00:33:53;102450.50;;;13.04;100.00
8569;BME280;4322;51.104;-4.162;2022-10-31T00:36:21;102456.56;;;13.06;100.00
8569;BME280;4322;51.104;-4.162;2022-10-31T00:38:49;102457.38;;;13.08;100.00
8569;BME280;4322;51.104;-4.162;2022-10-31T00:41:17;102467.69;;;13.13;100.00
8569;BME280;4322;51.104;-4.162;2022-10-31T00:43:47;102464.03;;;13.19;100.00
8569;BME280;4322;51.104;-4.162;2022-10-31T00:46:15;102469.97;;;13.24;100.00
8569;BME280;4322;51.104;-4.162;2022-10-31T00:48:43;102458.50;;;13.28;100.00
8569;BME280;4322;51.104;-4.162;2022-10-31T00:51:11;102454.13;;;13.28;100.00
8569;BME280;4322;51.104;-4.162;2022-10-31T00:53:39;102443.75;;;13.25;100.00
8569;BME280;4322;51.104;-4.162;2022-10-31T00:56:07;102444.72;;;13.23;100.00
8569;BME280;4322;51.104;-4.162;2022-10-31T00:58:35;102444.66;;;13.24;100.00
8569;BME280;4322;51.104;-4.162;2022-10-31T01:01:05;102453.34;;;13.25;100.00
8569;BME280;4322;51.104;-4.162;2022-10-31T01:03:33;102456.88;;;13.24;100.00
8569;BME280;4322;51.104;-4.162;2022-10-31T01:06:03;102446.41;;;13.24;100.00
8569;BME280;4322;51.104;-4.162;2022-10-31T01:08:33;102454.16;;;13.27;100.00
8569;BME280;4322;51.104;-4.162;2022-10-31T01:11:04;102454.16;;;13.27;100.00
8569;BME280;4322;51.104;-4.162;2022-10-31T01:13:33;102453.25;;;13.28;100.00
8569;BME280;4322;51.104;-4.162;2022-10-31T01:16:02;102452.41;;;13.27;100.00
8569;BME280;4322;51.104;-4.162;2022-10-31T01:18:33;102460.22;;;13.29;100.00
8569;BME280;4322;51.104;-4.162;2022-10-31T01:21:03;102462.72;;;13.32;100.00
8569;BME280;4322;51.104;-4.162;2022-10-31T01:23:32;102463.44;;;13.37;100.00
8569;BME280;4322;51.104;-4.162;2022-10-31T01:26:02;102472.78;;;13.44;100.00
8569;BME280;4322;51.104;-4.162;2022-10-31T01:28:31;102480.56;;;13.47;100.00
8569;BME280;4322;51.104;-4.162;2022-10-31T01:31:03;102464.94;;;13.44;100.00
8569;BME280;4322;51.104;-4.162;2022-10-31T01:33:33;102466.75;;;13.42;100.00
8569;BME280;4322;51.104;-4.162;2022-10-31T01:36:10;102460.75;;;13.38;100.00
8569;BME280;4322;51.104;-4.162;2022-10-31T01:38:38;102460.00;;;13.35;100.00
8569;BME280;4322;51.104;-4.162;2022-10-31T01:41:06;102456.56;;;13.33;100.00
8569;BME280;4322;51.104;-4.162;2022-10-31T01:43:46;102458.41;;;13.31;100.00
8569;BME280;4322;51.104;-4.162;2022-10-31T01:46:17;102468.91;;;13.29;100.00
8569;BME280;4322;51.104;-4.162;2022-10-31T01:48:49;102479.44;;;13.28;100.00
8569;BME280;4322;51.104;-4.162;2022-10-31T01:51:20;102485.53;;;13.28;100.00
8569;BME280;4322;51.104;-4.162;2022-10-31T01:53:50;102493.34;;;13.30;100.00
8569;BME280;4322;51.104;-4.162;2022-10-31T01:56:21;102505.53;;;13.31;100.00
8569;BME280;4322;51.104;-4.162;2022-10-31T01:58:50;102504.66;;;13.30;100.00
8569;BME280;4322;51.104;-4.162;2022-10-31T02:01:19;102503.81;;;13.30;100.00
8569;BME280;4322;51.104;-4.162;2022-10-31T02:03:49;102489.84;;;13.29;100.00
8569;BME280;4322;51.104;-4.162;2022-10-31T02:06:22;102492.44;;;13.31;100.00
8569;BME280;4322;51.104;-4.162;2022-10-31T02:08:55;102503.72;;;13.33;100.00
8569;BME280;4322;51.104;-4.162;2022-10-31T02:11:25;102499.34;;;13.33;100.00
8569;BME280;4322;51.104;-4.162;2022-10-31T02:13:55;102495.06;;;13.31;100.00
8569;BME280;4322;51.104;-4.162;2022-10-31T02:16:24;102495.06;;;13.31;100.00
8569;BME280;4322;51.104;-4.162;2022-10-31T02:18:53;102502.13;;;13.29;100.00
8569;BME280;4322;51.104;-4.162;2022-10-31T02:21:24;102505.63;;;13.28;100.00
8569;BME280;4322;51.104;-4.162;2022-10-31T02:24:25;102487.31;;;13.28;100.00
8569;BME280;4322;51.104;-4.162;2022-10-31T02:27:11;102486.50;;;13.26;100.00
8569;BME280;4322;51.104;-4.162;2022-10-31T02:30:01;102479.53;;;13.25;100.00
8569;BME280;4322;51.104;-4.162;2022-10-31T02:32:41;102484.69;;;13.28;100.00
8569;BME280;4322;51.104;-4.162;2022-10-31T02:35:20;102491.50;;;13.32;100.00
8569;BME280;4322;51.104;-4.162;2022-10-31T02:37:57;102493.22;;;13.34;100.00
8569;BME280;4322;51.104;-4.162;2022-10-31T02:40:30;102488.78;;;13.35;100.00
8569;BME280;4322;51.104;-4.162;2022-10-31T02:43:06;102486.28;;;13.32;100.00
8569;BME280;4322;51.104;-4.162;2022-10-31T02:45:44;102463.72;;;13.28;100.00
8569;BME280;4322;51.104;-4.162;2022-10-31T02:48:19;102453.34;;;13.25;100.00
8569;BME280;4322;51.104;-4.162;2022-10-31T02:50:52;102457.75;;;13.24;100.00
8569;BME280;4322;51.104;-4.162;2022-10-31T02:53:21;102459.41;;;13.27;100.00
8569;BME280;4322;51.104;-4.162;2022-10-31T02:55:56;102463.72;;;13.28;100.00
8569;BME280;4322;51.104;-4.162;2022-10-31T02:58:27;102476.72;;;13.31;100.00
8569;BME280;4322;51.104;-4.162;2022-10-31T03:04:06;102470.34;;;13.39;100.00
8569;BME280;4322;51.104;-4.162;2022-10-31T03:06:41;102476.28;;;13.44;100.00
8569;BME280;4322;51.104;-4.162;2022-10-31T03:09:16;102478.72;;;13.49;100.00
8569;BME280;4322;51.104;-4.162;2022-10-31T03:11:57;102469.88;;;13.53;100.00
8569;BME280;4322;51.104;-4.162;2022-10-31T03:14:31;102461.94;;;13.54;100.00
8569;BME280;4322;51.104;-4.162;2022-10-31T03:17:03;102453.22;;;13.54;100.00
8569;BME280;4322;51.104;-4.162;2022-10-31T03:19:39;102444.50;;;13.53;100.00
8569;BME280;4322;51.104;-4.162;2022-10-31T03:22:14;102446.28;;;13.53;100.00
8569;BME280;4322;51.104;-4.162;2022-10-31T03:24:45;102444.50;;;13.53;100.00
8569;BME280;4322;51.104;-4.162;2022-10-31T03:27:18;102444.47;;;13.55;100.00
8569;BME280;4322;51.104;-4.162;2022-10-31T03:29:49;102441.00;;;13.54;100.00
8569;BME280;4322;51.104;-4.162;2022-10-31T03:32:21;102455.75;;;13.57;100.00
8569;BME280;4322;51.104;-4.162;2022-10-31T03:34:56;102462.72;;;13.58;100.00
8569;BME280;4322;51.104;-4.162;2022-10-31T03:37:27;102453.91;;;13.59;100.00
8569;BME280;4322;51.104;-4.162;2022-10-31T03:39:57;102457.38;;;13.61;100.00
8569;BME280;4322;51.104;-4.162;2022-10-31T03:42:28;102457.25;;;13.64;100.00
8569;BME280;4322;51.104;-4.162;2022-10-31T03:44:59;102460.69;;;13.66;100.00
8569;BME280;4322;51.104;-4.162;2022-10-31T03:47:29;102458.00;;;13.67;100.00
8569;BME280;4322;51.104;-4.162;2022-10-31T03:49:59;102461.44;;;13.69;100.00
8569;BME280;4322;51.104;-4.162;2022-10-31T03:52:29;102470.09;;;13.71;100.00
8569;BME280;4322;51.104;-4.162;2022-10-31T03:55:06;102465.72;;;13.72;100.00
8569;BME280;4322;51.104;-4.162;2022-10-31T03:57:40;102463.97;;;13.71;100.00
8569;BME280;4322;51.104;-4.162;2022-10-31T04:00:13;102461.38;;;13.71;100.00
8569;BME280;4322;51.104;-4.162;2022-10-31T04:02:45;102460.50;;;13.70;100.00
8569;BME280;4322;51.104;-4.162;2022-10-31T04:05:17;102450.09;;;13.69;100.00
8569;BME280;4322;51.104;-4.162;2022-10-31T04:07:47;102463.19;;;13.69;100.00
8569;BME280;4322;51.104;-4.162;2022-10-31T04:10:19;102461.44;;;13.69;100.00
8569;BME280;4322;51.104;-4.162;2022-10-31T04:12:50;102458.81;;;13.69;100.00
8569;BME280;4322;51.104;-4.162;2022-10-31T04:15:22;102464.09;;;13.68;100.00
8569;BME280;4322;51.104;-4.162;2022-10-31T04:17:55;102455.44;;;13.66;100.00
8569;BME280;4322;51.104;-4.162;2022-10-31T04:20:34;102457.25;;;13.64;100.00
8569;BME280;4322;51.104;-4.162;2022-10-31T04:23:03;102469.50;;;13.63;100.00
8569;BME280;4322;51.104;-4.162;2022-10-31T04:25:34;102479.22;;;13.60;100.00
8569;BME280;4322;51.104;-4.162;2022-10-31T04:28:02;102475.00;;;13.56;100.00
8569;BME280;4322;51.104;-4.162;2022-10-31T04:30:30;102478.63;;;13.52;100.00
8569;BME280;4322;51.104;-4.162;2022-10-31T04:32:58;102468.31;;;13.47;100.00
8569;BME280;4322;51.104;-4.162;2022-10-31T04:35:27;102472.84;;;13.42;100.00
8569;BME280;4322;51.104;-4.162;2022-10-31T04:37:56;102499.06;;;13.41;100.00
8569;BME280;4322;51.104;-4.162;2022-10-31T04:40:24;102495.59;;;13.40;100.00
8569;BME280;4322;51.104;-4.162;2022-10-31T04:42:52;102504.31;;;13.41;100.00
8569;BME280;4322;51.104;-4.162;2022-10-31T04:45:20;102509.53;;;13.42;100.00
8569;BME280;4322;51.104;-4.162;2022-10-31T04:47:49;102529.53;;;13.45;100.00
8569;BME280;4322;51.104;-4.162;2022-10-31T04:50:17;102537.31;;;13.46;100.00
8569;BME280;4322;51.104;-4.162;2022-10-31T04:52:45;102541.69;;;13.46;100.00
8569;BME280;4322;51.104;-4.162;2022-10-31T04:55:15;102542.44;;;13.49;100.00
8569;BME280;4322;51.104;-4.162;2022-10-31T04:57:44;102554.66;;;13.50;100.00
8569;BME280;4322;51.104;-4.162;2022-10-31T05:00:14;102552.06;;;13.49;100.00
8569;BME280;4322;51.104;-4.162;2022-10-31T05:02:43;102545.31;;;13.42;100.00
8569;BME280;4322;51.104;-4.162;2022-10-31T05:05:12;102534.06;;;13.40;100.00
8569;BME280;4322;51.104;-4.162;2022-10-31T05:07:41;102533.22;;;13.38;100.00
8569;BME280;4322;51.104;-4.162;2022-10-31T05:10:10;102542.81;;;13.39;100.00
8569;BME280;4322;51.104;-4.162;2022-10-31T05:12:45;102554.06;;;13.41;100.00
8569;BME280;4322;51.104;-4.162;2022-10-31T05:15:15;102558.44;;;13.42;100.00
8569;BME280;4322;51.104;-4.162;2022-10-31T05:17:43;102548.84;;;13.41;100.00
8569;BME280;4322;51.104;-4.162;2022-10-31T05:20:13;102557.50;;;13.43;100.00
8569;BME280;4322;51.104;-4.162;2022-10-31T05:22:46;102568.84;;;13.43;100.00
8569;BME280;4322;51.104;-4.162;2022-10-31T05:25:16;102562.72;;;13.43;100.00
8569;BME280;4322;51.104;-4.162;2022-10-31T05:27:47;102560.13;;;13.43;100.00
8569;BME280;4322;51.104;-4.162;2022-10-31T05:30:18;102564.47;;;13.44;100.00
8569;BME280;4322;51.104;-4.162;2022-10-31T05:32:47;102575.81;;;13.44;100.00
8569;BME280;4322;51.104;-4.162;2022-10-31T05:35:19;102572.31;;;13.44;100.00
8569;BME280;4322;51.104;-4.162;2022-10-31T05:37:47;102576.75;;;13.42;100.00
8569;BME280;4322;51.104;-4.162;2022-10-31T05:40:16;102566.28;;;13.42;100.00
8569;BME280;4322;51.104;-4.162;2022-10-31T05:42:47;102564.56;;;13.41;100.00
8569;BME280;4322;51.104;-4.162;2022-10-31T05:45:16;102563.75;;;13.39;100.00
8569;BME280;4322;51.104;-4.162;2022-10-31T05:47:50;102566.38;;;13.39;100.00
8569;BME280;4322;51.104;-4.162;2022-10-31T05:50:18;102563.75;;;13.39;100.00
8569;BME280;4322;51.104;-4.162;2022-10-31T05:52:46;102571.53;;;13.42;100.00
8569;BME280;4322;51.104;-4.162;2022-10-31T05:55:14;102575.84;;;13.43;100.00
8569;BME280;4322;51.104;-4.162;2022-10-31T05:57:42;102572.25;;;13.45;100.00
8569;BME280;4322;51.104;-4.162;2022-10-31T06:00:12;102572.16;;;13.48;100.00
8569;BME280;4322;51.104;-4.162;2022-10-31T06:02:40;102576.56;;;13.48;100.00
8569;BME280;4322;51.104;-4.162;2022-10-31T06:05:08;102564.28;;;13.50;100.00
8569;BME280;4322;51.104;-4.162;2022-10-31T06:07:36;102552.13;;;13.47;100.00
8569;BME280;4322;51.104;-4.162;2022-10-31T06:10:06;102532.94;;;13.47;100.00
8569;BME280;4322;51.104;-4.162;2022-10-31T06:12:35;102530.34;;;13.45;100.00
8569;BME280;4322;51.104;-4.162;2022-10-31T06:15:05;102516.53;;;13.42;100.00
8569;BME280;4322;51.104;-4.162;2022-10-31T06:17:35;102514.78;;;13.41;100.00
8569;BME280;4322;51.104;-4.162;2022-10-31T06:20:04;102513.03;;;13.41;100.00
8569;BME280;4322;51.104;-4.162;2022-10-31T06:22:33;102517.31;;;13.44;100.00
8569;BME280;4322;51.104;-4.162;2022-10-31T06:25:01;102530.31;;;13.47;100.00
8569;BME280;4322;51.104;-4.162;2022-10-31T06:27:29;102528.50;;;13.49;100.00
8569;BME280;4322;51.104;-4.162;2022-10-31T06:29:57;102525.88;;;13.49;100.00
8569;BME280;4322;51.104;-4.162;2022-10-31T06:32:25;102511.09;;;13.48;100.00
8569;BME280;4322;51.104;-4.162;2022-10-31T06:34:54;102510.16;;;13.49;100.00
8569;BME280;4322;51.104;-4.162;2022-10-31T06:37:22;102498.81;;;13.48;100.00
8569;BME280;4322;51.104;-4.162;2022-10-31T06:39:50;102495.38;;;13.48;100.00
8569;BME280;4322;51.104;-4.162;2022-10-31T06:42:18;102478.72;;;13.49;100.00
8569;BME280;4322;51.104;-4.162;2022-10-31T06:44:46;102484.75;;;13.51;100.00
8569;BME280;4322;51.104;-4.162;2022-10-31T06:47:14;102476.91;;;13.51;100.00
8569;BME280;4322;51.104;-4.162;2022-10-31T06:49:42;102463.81;;;13.51;100.00
8569;BME280;4322;51.104;-4.162;2022-10-31T06:52:11;102464.72;;;13.50;100.00
8569;BME280;4322;51.104;-4.162;2022-10-31T06:54:39;102455.94;;;13.51;100.00
8569;BME280;4322;51.104;-4.162;2022-10-31T06:57:07;102461.16;;;13.52;100.00
8569;BME280;4322;51.104;-4.162;2022-10-31T06:59:35;102462.81;;;13.55;100.00
8569;BME280;4322;51.104;-4.162;2022-10-31T07:02:03;102448.81;;;13.56;100.00
8569;BME280;4322;51.104;-4.162;2022-10-31T07:04:31;102435.66;;;13.57;100.00
8569;BME280;4322;51.104;-4.162;2022-10-31T07:06:59;102432.13;;;13.58;100.00
8569;BME280;4322;51.104;-4.162;2022-10-31T07:09:29;102423.41;;;13.58;100.00
8569;BME280;4322;51.104;-4.162;2022-10-31T07:11:57;102404.22;;;13.57;100.00
8569;BME280;4322;51.104;-4.162;2022-10-31T07:14:25;102392.94;;;13.55;100.00
8569;BME280;4322;51.104;-4.162;2022-10-31T07:16:53;102385.09;;;13.55;100.00
8569;BME280;4322;51.104;-4.162;2022-10-31T07:19:21;102379.84;;;13.55;100.00
8569;BME280;4322;51.104;-4.162;2022-10-31T07:21:49;102362.38;;;13.56;100.00
8569;BME280;4322;51.104;-4.162;2022-10-31T07:24:16;102361.41;;;13.58;100.00
8569;BME280;4322;51.104;-4.162;2022-10-31T07:26:46;102346.66;;;13.56;100.00
8569;BME280;4322;51.104;-4.162;2022-10-31T07:29:15;102347.59;;;13.53;100.00
8569;BME280;4322;51.104;-4.162;2022-10-31T07:31:45;102344.13;;;13.53;100.00
8569;BME280;4322;51.104;-4.162;2022-10-31T07:34:13;102341.56;;;13.51;100.00
8569;BME280;4322;51.104;-4.162;2022-10-31T07:36:41;102328.53;;;13.50;100.00
8569;BME280;4322;51.104;-4.162;2022-10-31T07:39:09;102332.03;;;13.49;100.00
8569;BME280;4322;51.104;-4.162;2022-10-31T07:41:37;102319.88;;;13.48;100.00
8569;BME280;4322;51.104;-4.162;2022-10-31T07:44:07;102323.41;;;13.47;100.00
8569;BME280;4322;51.104;-4.162;2022-10-31T07:46:35;102305.97;;;13.46;100.00
8569;BME280;4322;51.104;-4.162;2022-10-31T07:49:03;102313.88;;;13.44;100.00
8569;BME280;4322;51.104;-4.162;2022-10-31T07:51:31;102320.00;;;13.45;100.00
8569;BME280;4322;51.104;-4.162;2022-10-31T07:53:59;102313.03;;;13.44;100.00
8569;BME280;4322;51.104;-4.162;2022-10-31T07:56:27;102309.50;;;13.45;100.00
8569;BME280;4322;51.104;-4.162;2022-10-31T07:58:56;102315.56;;;13.45;100.00
8569;BME280;4322;51.104;-4.162;2022-10-31T08:01:25;102311.09;;;13.49;100.00
8569;BME280;4322;51.104;-4.162;2022-10-31T08:03:53;102297.09;;;13.50;100.00
8569;BME280;4322;51.104;-4.162;2022-10-31T08:06:21;102300.50;;;13.52;100.00
8569;BME280;4322;51.104;-4.162;2022-10-31T08:08:50;102290.88;;;13.52;100.00
8569;BME280;4322;51.104;-4.162;2022-10-31T08:11:18;102282.97;;;13.54;100.00
8569;BME280;4322;51.104;-4.162;2022-10-31T08:13:50;102275.91;;;13.56;100.00
8569;BME280;4322;51.104;-4.162;2022-10-31T08:16:33;102275.06;;;13.55;100.00
8569;BME280;4322;51.104;-4.162;2022-10-31T08:19:01;102272.44;;;13.55;100.00
8569;BME280;4322;51.104;-4.162;2022-10-31T08:21:29;102268.06;;;13.56;100.00
8569;BME280;4322;51.104;-4.162;2022-10-31T08:23:58;102268.00;;;13.57;100.00
8569;BME280;4322;51.104;-4.162;2022-10-31T08:26:26;102263.63;;;13.58;100.00
8569;BME280;4322;51.104;-4.162;2022-10-31T08:28:54;102250.41;;;13.61;100.00
8569;BME280;4322;51.104;-4.162;2022-10-31T08:31:22;102255.53;;;13.64;100.00
8569;BME280;4322;51.104;-4.162;2022-10-31T08:34:00;102246.75;;;13.65;100.00
8569;BME280;4322;51.104;-4.162;2022-10-31T08:36:29;102250.16;;;13.67;100.00
8569;BME280;4322;51.104;-4.162;2022-10-31T08:38:57;102243.09;;;13.69;100.00
8569;BME280;4322;51.104;-4.162;2022-10-31T08:41:27;102246.31;;;13.76;100.00
8569;BME280;4322;51.104;-4.162;2022-10-31T08:43:56;102238.31;;;13.80;100.00
8569;BME280;4322;51.104;-4.162;2022-10-31T08:46:24;102266.88;;;13.86;100.00
8569;BME280;4322;51.104;-4.162;2022-10-31T08:48:52;102251.69;;;13.94;100.00
8569;BME280;4322;51.104;-4.162;2022-10-31T08:51:22;102239.28;;;13.99;100.00
8569;BME280;4322;51.104;-4.162;2022-10-31T08:53:50;102228.66;;;14.02;100.00
8569;BME280;4322;51.104;-4.162;2022-10-31T08:56:18;102230.25;;;14.06;100.00
8569;BME280;4322;51.104;-4.162;2022-10-31T08:58:46;102213.66;;;14.06;100.00
8569;BME280;4322;51.104;-4.162;2022-10-31T09:01:15;102197.94;;;14.06;100.00
8569;BME280;4322;51.104;-4.162;2022-10-31T09:03:43;102190.03;;;14.07;100.00
8569;BME280;4322;51.104;-4.162;2022-10-31T09:06:11;102179.47;;;14.09;100.00
8569;BME280;4322;51.104;-4.162;2022-10-31T09:08:40;102168.94;;;14.10;100.00
8569;BME280;4322;51.104;-4.162;2022-10-31T09:11:09;102153.19;;;14.10;100.00
8569;BME280;4322;51.104;-4.162;2022-10-31T09:13:37;102147.97;;;14.10;100.00
8569;BME280;4322;51.104;-4.162;2022-10-31T09:16:07;102130.38;;;14.12;100.00
8569;BME280;4322;51.104;-4.162;2022-10-31T09:18:35;102123.22;;;14.16;100.00
8569;BME280;4322;51.104;-4.162;2022-10-31T09:21:03;102130.13;;;14.18;100.00
8569;BME280;4322;51.104;-4.162;2022-10-31T09:23:31;102111.69;;;14.20;100.00
8569;BME280;4322;51.104;-4.162;2022-10-31T09:26:01;102094.97;;;14.22;100.00
8569;BME280;4322;51.104;-4.162;2022-10-31T09:28:30;102082.66;;;14.24;100.00
8569;BME280;4322;51.104;-4.162;2022-10-31T09:30:59;102079.84;;;14.29;100.00
8569;BME280;4322;51.104;-4.162;2022-10-31T09:33:27;102069.25;;;14.32;100.00
8569;BME280;4322;51.104;-4.162;2022-10-31T09:35:57;102068.13;;;14.38;100.00
8569;BME280;4322;51.104;-4.162;2022-10-31T09:38:26;102051.34;;;14.42;100.00
8569;BME280;4322;51.104;-4.162;2022-10-31T09:41:04;102046.00;;;14.43;100.00
8569;BME280;4322;51.104;-4.162;2022-10-31T09:43:46;102032.75;;;14.46;100.00
8569;BME280;4322;51.104;-4.162;2022-10-31T09:46:24;102025.59;;;14.50;100.00
8569;BME280;4322;51.104;-4.162;2022-10-31T09:49:14;102014.97;;;14.53;100.00
8569;BME280;4322;51.104;-4.162;2022-10-31T09:51:50;102024.34;;;14.58;100.00
8569;BME280;4322;51.104;-4.162;2022-10-31T09:54:25;102016.34;;;14.61;100.00
8569;BME280;4322;51.104;-4.162;2022-10-31T09:56:57;102002.22;;;14.64;100.00
8569;BME280;4322;51.104;-4.162;2022-10-31T09:59:30;101996.84;;;14.67;100.00
8569;BME280;4322;51.104;-4.162;2022-10-31T10:02:01;102000.22;;;14.69;100.00
8569;BME280;4322;51.104;-4.162;2022-10-31T10:04:37;101994.06;;;14.70;100.00
8569;BME280;4322;51.104;-4.162;2022-10-31T10:07:14;101978.19;;;14.73;100.00
8569;BME280;4322;51.104;-4.162;2022-10-31T10:09:44;101965.88;;;14.73;100.00
8569;BME280;4322;51.104;-4.162;2022-10-31T10:12:18;101954.47;;;14.74;100.00
8569;BME280;4322;51.104;-4.162;2022-10-31T10:14:59;101947.31;;;14.78;100.00
8569;BME280;4322;51.104;-4.162;2022-10-31T10:17:37;101934.88;;;14.81;100.00
8569;BME280;4322;51.104;-4.162;2022-10-31T10:20:16;101921.56;;;14.86;100.00
8569;BME280;4322;51.104;-4.162;2022-10-31T10:22:54;101908.28;;;14.89;100.00
8569;BME280;4322;51.104;-4.162;2022-10-31T10:25:27;101893.34;;;14.89;100.00
8569;BME280;4322;51.104;-4.162;2022-10-31T10:28:08;101891.53;;;14.92;100.00
8569;BME280;4322;51.104;-4.162;2022-10-31T10:30:41;101890.53;;;14.94;100.00
8569;BME280;4322;51.104;-4.162;2022-10-31T10:33:12;101854.63;;;14.95;100.00
8569;BME280;4322;51.104;-4.162;2022-10-31T10:35:45;101843.13;;;14.97;100.00
8569;BME280;4322;51.104;-4.162;2022-10-31T10:38:22;101826.38;;;15.00;100.00
8569;BME280;4322;51.104;-4.162;2022-10-31T10:40:52;101822.59;;;15.05;100.00
8569;BME280;4322;51.104;-4.162;2022-10-31T10:43:26;101817.25;;;15.07;100.00
8569;BME280;4322;51.104;-4.162;2022-10-31T10:46:16;101804.88;;;15.09;100.00
8569;BME280;4322;51.104;-4.162;2022-10-31T10:49:11;101803.09;;;15.09;100.00
8569;BME280;4322;51.104;-4.162;2022-10-31T10:51:44;101786.44;;;15.10;100.00
8569;BME280;4322;51.104;-4.162;2022-10-31T10:54:55;101787.19;;;15.12;100.00
8569;BME280;4322;51.104;-4.162;2022-10-31T10:57:41;101755.69;;;15.12;100.00
8569;BME280;4322;51.104;-4.162;2022-10-31T11:00:19;101749.44;;;15.15;100.00
8569;BME280;4322;51.104;-4.162;2022-10-31T11:02:48;101737.00;;;15.18;100.00
8569;BME280;4322;51.104;-4.162;2022-10-31T11:05:26;101734.97;;;15.23;100.00
8569;BME280;4322;51.104;-4.162;2022-10-31T11:07:56;101736.50;;;15.27;100.00
8569;BME280;4322;51.104;-4.162;2022-10-31T11:10:24;101722.44;;;15.28;100.00
8569;BME280;4322;51.104;-4.162;2022-10-31T11:13:04;101717.19;;;15.28;100.00
8569;BME280;4322;51.104;-4.162;2022-10-31T11:15:37;101705.81;;;15.28;100.00
8569;BME280;4322;51.104;-4.162;2022-10-31T11:18:19;101689.16;;;15.29;100.00
8569;BME280;4322;51.104;-4.162;2022-10-31T11:20:51;101687.38;;;15.29;100.00
8569;BME280;4322;51.104;-4.162;2022-10-31T11:23:21;101675.16;;;15.28;100.00
8569;BME280;4322;51.104;-4.162;2022-10-31T11:25:55;101654.16;;;15.28;100.00
8569;BME280;4322;51.104;-4.162;2022-10-31T11:28:23;101653.22;;;15.29;100.00
8569;BME280;4322;51.104;-4.162;2022-10-31T11:30:55;101647.03;;;15.30;100.00
8569;BME280;4322;51.104;-4.162;2022-10-31T11:33:34;101635.59;;;15.31;100.00
8569;BME280;4322;51.104;-4.162;2022-10-31T11:36:15;101620.59;;;15.33;100.00
8569;BME280;4322;51.104;-4.162;2022-10-31T11:38:44;101620.53;;;15.35;100.00
8569;BME280;4322;51.104;-4.162;2022-10-31T11:41:14;101611.69;;;15.36;100.00
8569;BME280;4322;51.104;-4.162;2022-10-31T11:43:48;101601.13;;;15.37;100.00
8569;BME280;4322;51.104;-4.162;2022-10-31T11:46:21;101568.66;;;15.38;100.00
8569;BME280;4322;51.104;-4.162;2022-10-31T11:48:51;101555.34;;;15.41;100.00
8569;BME280;4322;51.104;-4.162;2022-10-31T11:51:24;101539.41;;;15.44;100.00
8569;BME280;4322;51.104;-4.162;2022-10-31T11:57:05;101522.81;;;15.60;100.00
8569;BME280;4322;51.104;-4.162;2022-10-31T12:02:45;101490.19;;;15.78;100.00
8569;BME280;4322;51.104;-4.162;2022-10-31T12:08:42;101457.94;;;16.18;100.00
8569;BME280;4322;51.104;-4.162;2022-10-31T12:11:21;101444.31;;;16.26;100.00
8569;BME280;4322;51.104;-4.162;2022-10-31T12:14:08;101426.66;;;16.28;100.00
8569;BME280;4322;51.104;-4.162;2022-10-31T12:16:51;101398.09;;;16.22;100.00
8569;BME280;4322;51.104;-4.162;2022-10-31T12:19:42;101362.59;;;16.15;100.00
8569;BME280;4322;51.104;-4.162;2022-10-31T12:22:19;101348.88;;;16.09;100.00
8569;BME280;4322;51.104;-4.162;2022-10-31T12:25:07;101340.38;;;16.06;100.00
8569;BME280;4322;51.104;-4.162;2022-10-31T12:27:58;101342.22;;;16.04;100.00
8569;BME280;4322;51.104;-4.162;2022-10-31T12:30:37;101322.16;;;16.03;100.00
8569;BME280;4322;51.104;-4.162;2022-10-31T12:33:25;101324.59;;;16.06;100.00
8569;BME280;4322;51.104;-4.162;2022-10-31T12:36:14;101329.44;;;16.12;100.00
8569;BME280;4322;51.104;-4.162;2022-10-31T12:38:58;101319.44;;;16.31;100.00
8569;BME280;4322;51.104;-4.162;2022-10-31T12:41:39;101307.53;;;16.52;100.00
8569;BME280;4322;51.104;-4.162;2022-10-31T12:47:19;101279.66;;;16.77;100.00
8569;BME280;4322;51.104;-4.162;2022-10-31T12:49:57;101264.78;;;16.76;100.00
8569;BME280;4322;51.104;-4.162;2022-10-31T12:52:42;101256.69;;;16.79;100.00
8569;BME280;4322;51.104;-4.162;2022-10-31T12:55:24;101237.63;;;16.88;100.00
8569;BME280;4322;51.104;-4.162;2022-10-31T12:58:01;101222.59;;;16.90;100.00
8569;BME280;4322;51.104;-4.162;2022-10-31T13:00:32;101206.22;;;17.10;100.00
8569;BME280;4322;51.104;-4.162;2022-10-31T13:03:21;101212.56;;;17.20;100.00
8569;BME280;4322;51.104;-4.162;2022-10-31T13:05:54;101195.50;;;17.13;100.00
8569;BME280;4322;51.104;-4.162;2022-10-31T13:08:30;101193.09;;;16.97;100.00
8569;BME280;4322;51.104;-4.162;2022-10-31T13:11:06;101193.31;;;16.82;100.00
8569;BME280;4322;51.104;-4.162;2022-10-31T13:13:38;101187.81;;;16.72;100.00
8569;BME280;4322;51.104;-4.162;2022-10-31T13:16:11;101181.38;;;16.63;100.00
8569;BME280;4322;51.104;-4.162;2022-10-31T13:18:45;101176.53;;;16.57;100.00
8569;BME280;4322;51.104;-4.162;2022-10-31T13:21:19;101168.94;;;16.53;100.00
8569;BME280;4322;51.104;-4.162;2022-10-31T13:23:51;101168.28;;;16.49;100.00
8569;BME280;4322;51.104;-4.162;2022-10-31T13:26:24;101150.09;;;16.46;100.00
8569;BME280;4322;51.104;-4.162;2022-10-31T13:29:04;101144.38;;;16.40;100.00
8569;BME280;4322;51.104;-4.162;2022-10-31T13:31:34;101144.78;;;16.34;100.00